Time;durP1;ratioP1;P1;durP2;ratioP2;P2;SDS_P1;SDS_P2;PMS_P1;PMS_P2;Temp;Humidity;BMP_temperature;BMP_pressure;BME280_temperature;BME280_humidity;BME280_pressure;Samples;Min_cycle;Max_cycle;Signal;HPM_P1;HPM_P2
2021/03/16 00:02:02;;;;;;;28.55;3.95;;;5.40;90.30;;;;;;5073289;28;20091;-72
2021/03/16 00:04:28;;;;;;;23.63;3.75;;;5.50;90.30;;;;;;5070653;28;20394;-72
2021/03/16 00:06:53;;;;;;;29.45;4.53;;;5.50;90.10;;;;;;5064996;28;20607;-72
2021/03/16 00:09:19;;;;;;;21.58;4.35;;;5.50;89.40;;;;;;5065819;28;20446;-72
2021/03/16 00:11:45;;;;;;;17.67;2.88;;;5.50;89.50;;;;;;5069831;28;20094;-73
2021/03/16 00:14:10;;;;;;;20.10;2.78;;;5.50;90.20;;;;;;5072565;28;20033;-72
2021/03/16 00:16:36;;;;;;;22.67;3.38;;;5.50;89.50;;;;;;5070761;28;20121;-72
2021/03/16 00:19:02;;;;;;;23.08;3.80;;;5.60;88.80;;;;;;5071774;28;20530;-73
2021/03/16 00:21:28;;;;;;;25.80;3.63;;;5.60;88.80;;;;;;5078716;28;20147;-74
2021/03/16 00:23:54;;;;;;;18.63;3.28;;;5.50;87.60;;;;;;5078973;28;20501;-73
2021/03/16 00:26:19;;;;;;;23.92;3.35;;;5.60;88.60;;;;;;5074275;28;20056;-73
2021/03/16 00:28:45;;;;;;;17.48;3.70;;;5.60;87.50;;;;;;5072848;28;20040;-72
2021/03/16 00:31:10;;;;;;;17.88;3.42;;;5.60;87.30;;;;;;5068450;28;20111;-72
2021/03/16 00:33:36;;;;;;;21.65;3.40;;;5.50;87.60;;;;;;5070507;28;20458;-73
2021/03/16 00:36:02;;;;;;;19.13;3.33;;;5.50;87.60;;;;;;5071229;28;20033;-72
2021/03/16 00:38:28;;;;;;;24.52;3.85;;;5.40;87.60;;;;;;5068623;28;20456;-72
2021/03/16 00:40:54;;;;;;;18.88;3.53;;;5.40;88.00;;;;;;5069735;28;20037;-72
2021/03/16 00:43:19;;;;;;;18.75;3.83;;;5.50;89.10;;;;;;5071611;28;20041;-72
2021/03/16 00:45:45;;;;;;;24.75;3.90;;;5.50;88.70;;;;;;5071397;28;20049;-72
2021/03/16 00:48:15;;;;;;;22.05;4.25;;;5.50;88.40;;;;;;5070998;28;20035;-72
2021/03/16 00:50:41;;;;;;;22.92;3.72;;;5.40;88.10;;;;;;5067519;28;20039;-72
2021/03/16 00:53:09;;;;;;;20.48;3.10;;;5.40;87.60;;;;;;5070362;28;20059;-72
2021/03/16 00:55:34;;;;;;;18.83;3.00;;;5.40;88.40;;;;;;5068891;28;20071;-72
2021/03/16 00:58:00;;;;;;;20.33;3.00;;;5.40;89.00;;;;;;5071003;28;20046;-72
2021/03/16 01:00:26;;;;;;;17.70;2.53;;;5.50;89.60;;;;;;5069990;28;20063;-72
2021/03/16 01:02:51;;;;;;;19.77;3.83;;;5.60;88.90;;;;;;5082661;28;20087;-72
2021/03/16 01:05:17;;;;;;;21.05;3.50;;;5.60;88.70;;;;;;5069829;28;20045;-72
2021/03/16 01:07:43;;;;;;;19.58;3.85;;;5.70;88.50;;;;;;5070359;28;20082;-72
2021/03/16 01:10:14;;;;;;;22.20;3.72;;;5.70;88.20;;;;;;5069796;28;20474;-72
2021/03/16 01:12:41;;;;;;;20.33;3.65;;;5.70;88.70;;;;;;5069130;28;20090;-72
2021/03/16 01:15:08;;;;;;;21.85;3.15;;;5.70;88.00;;;;;;5069645;28;20132;-72
2021/03/16 01:17:34;;;;;;;15.20;3.42;;;5.80;88.70;;;;;;5069648;28;20041;-72
2021/03/16 01:19:59;;;;;;;17.65;3.92;;;5.80;88.20;;;;;;5065631;28;20043;-72
2021/03/16 01:22:25;;;;;;;18.70;3.47;;;5.80;87.10;;;;;;5070229;28;20036;-72
2021/03/16 01:24:51;;;;;;;19.17;3.03;;;5.80;87.30;;;;;;5061655;28;20040;-72
2021/03/16 01:27:16;;;;;;;27.92;3.90;;;5.80;87.70;;;;;;5067651;28;20398;-72
2021/03/16 01:29:42;;;;;;;22.50;3.65;;;5.80;87.30;;;;;;5068860;28;20052;-72
2021/03/16 01:32:08;;;;;;;16.85;3.20;;;5.90;86.50;;;;;;5069510;28;20036;-72
2021/03/16 01:34:33;;;;;;;14.82;3.22;;;5.90;88.30;;;;;;5066932;28;20107;-72
2021/03/16 01:36:59;;;;;;;16.60;2.83;;;5.90;87.10;;;;;;5068268;28;20063;-72
2021/03/16 01:39:25;;;;;;;17.25;3.05;;;5.90;88.00;;;;;;5070767;28;20041;-72
2021/03/16 01:41:51;;;;;;;21.02;3.58;;;6.00;86.90;;;;;;5068713;28;20469;-72
2021/03/16 01:44:16;;;;;;;16.92;3.22;;;6.00;87.90;;;;;;5070632;28;20036;-72
2021/03/16 01:46:43;;;;;;;17.48;3.20;;;6.00;87.70;;;;;;5069055;28;20082;-72
2021/03/16 01:49:10;;;;;;;21.80;3.53;;;6.10;87.30;;;;;;5070337;28;20036;-72
2021/03/16 01:51:36;;;;;;;18.38;2.55;;;5.90;86.70;;;;;;5068853;28;20052;-72
2021/03/16 01:54:06;;;;;;;20.45;3.20;;;6.00;87.20;;;;;;5070327;28;20048;-71
2021/03/16 01:56:33;;;;;;;20.73;3.05;;;6.00;87.10;;;;;;5061106;28;20032;-70
2021/03/16 01:59:00;;;;;;;18.90;3.13;;;5.90;86.80;;;;;;5068774;28;20529;-70
2021/03/16 02:01:26;;;;;;;16.98;2.80;;;5.90;87.30;;;;;;5070270;28;20028;-70
2021/03/16 02:03:53;;;;;;;20.73;3.13;;;6.00;87.50;;;;;;5070001;28;20601;-70
2021/03/16 02:06:45;;;;;;;19.23;2.72;;;6.00;86.80;;;;;;5070616;28;20114;-70
2021/03/16 02:09:26;;;;;;;17.92;3.20;;;6.00;86.10;;;;;;5069533;28;20041;-70
2021/03/16 02:12:01;;;;;;;12.77;2.38;;;6.00;86.20;;;;;;5068317;28;20482;-70
2021/03/16 02:14:34;;;;;;;17.08;3.08;;;6.00;86.50;;;;;;5065494;28;20055;-70
2021/03/16 02:17:07;;;;;;;18.92;2.88;;;6.00;85.70;;;;;;5070081;28;20132;-70
2021/03/16 02:20:00;;;;;;;19.73;3.17;;;6.10;87.30;;;;;;5051410;28;20394;-70
2021/03/16 02:22:30;;;;;;;16.30;2.70;;;6.00;86.10;;;;;;5065874;28;20047;-70
2021/03/16 02:25:08;;;;;;;21.92;2.90;;;6.00;86.80;;;;;;5060504;28;20090;-70
2021/03/16 02:28:02;;;;;;;14.32;2.30;;;6.20;85.50;;;;;;5066177;28;20063;-70
2021/03/16 02:30:30;;;;;;;24.38;3.25;;;6.10;84.50;;;;;;5057971;28;20459;-70
2021/03/16 02:32:57;;;;;;;12.98;2.15;;;6.00;84.90;;;;;;5070090;28;20101;-70
2021/03/16 02:35:23;;;;;;;20.00;3.55;;;6.10;86.80;;;;;;5069048;28;20128;-70
2021/03/16 02:37:54;;;;;;;16.42;2.42;;;6.10;86.20;;;;;;5068065;28;20474;-70
2021/03/16 02:40:22;;;;;;;12.10;2.35;;;6.10;87.20;;;;;;5062087;28;20045;-70
2021/03/16 02:42:48;;;;;;;24.17;3.05;;;6.10;87.10;;;;;;5066413;28;20033;-70
2021/03/16 02:45:15;;;;;;;20.55;3.03;;;6.10;87.00;;;;;;5070762;28;20079;-70
2021/03/16 02:47:41;;;;;;;17.75;3.30;;;6.10;86.70;;;;;;5067655;28;20036;-70
2021/03/16 02:50:09;;;;;;;18.35;3.05;;;6.10;86.50;;;;;;5062005;28;20029;-70
2021/03/16 02:52:35;;;;;;;19.83;2.75;;;6.00;86.70;;;;;;5068023;28;20494;-70
2021/03/16 02:55:03;;;;;;;12.15;2.05;;;6.00;87.50;;;;;;5066157;28;20478;-70
2021/03/16 02:57:30;;;;;;;17.70;3.03;;;6.00;88.00;;;;;;5068782;28;20104;-70
2021/03/16 03:00:00;;;;;;;20.13;3.85;;;6.00;87.20;;;;;;5069620;28;20033;-70
2021/03/16 03:02:28;;;;;;;22.70;3.25;;;6.00;87.00;;;;;;5069341;28;20036;-70
2021/03/16 03:04:55;;;;;;;19.67;3.15;;;6.00;87.20;;;;;;5067988;28;20048;-70
2021/03/16 03:07:22;;;;;;;15.15;2.92;;;5.90;87.30;;;;;;5068406;28;20032;-70
2021/03/16 03:09:47;;;;;;;17.92;3.03;;;6.00;87.80;;;;;;5066796;28;20110;-70
2021/03/16 03:12:13;;;;;;;25.35;3.00;;;6.10;87.20;;;;;;5069943;28;20466;-71
2021/03/16 03:14:39;;;;;;;15.73;3.22;;;6.00;87.70;;;;;;5068710;28;20086;-70
2021/03/16 03:17:06;;;;;;;22.35;3.65;;;6.00;87.70;;;;;;5068006;28;20063;-70
2021/03/16 03:19:32;;;;;;;17.45;3.10;;;5.90;88.10;;;;;;5068088;28;20036;-70
2021/03/16 03:22:08;;;;;;;23.38;2.97;;;6.00;88.00;;;;;;5069105;28;20107;-70
2021/03/16 03:24:43;;;;;;;17.42;2.90;;;6.00;88.10;;;;;;5067540;28;20055;-70
2021/03/16 03:27:22;;;;;;;17.27;3.05;;;6.00;88.00;;;;;;5071474;28;20106;-70
2021/03/16 03:29:50;;;;;;;18.38;3.00;;;6.00;88.10;;;;;;5072177;28;20115;-70
2021/03/16 03:32:22;;;;;;;21.95;4.25;;;6.00;87.80;;;;;;5071913;28;20044;-70
2021/03/16 03:34:49;;;;;;;18.13;2.38;;;6.00;87.80;;;;;;5073923;28;20090;-70
2021/03/16 03:37:20;;;;;;;18.17;3.00;;;6.00;87.10;;;;;;5070396;28;20375;-70
2021/03/16 03:39:47;;;;;;;15.77;2.70;;;5.90;86.60;;;;;;5069585;28;20068;-70
2021/03/16 03:42:15;;;;;;;17.92;2.45;;;6.00;87.30;;;;;;5069478;28;20059;-70
2021/03/16 03:44:44;;;;;;;20.45;3.55;;;6.00;87.20;;;;;;5066593;28;20471;-70
2021/03/16 03:47:11;;;;;;;24.67;3.13;;;5.90;87.60;;;;;;5072437;28;20046;-70
2021/03/16 03:49:38;;;;;;;16.83;2.72;;;5.90;87.80;;;;;;5078969;28;20049;-71
2021/03/16 03:52:04;;;;;;;18.23;2.40;;;5.90;87.80;;;;;;5073163;28;20056;-70
2021/03/16 03:54:31;;;;;;;16.92;2.47;;;5.90;88.20;;;;;;5073763;28;20274;-70
2021/03/16 03:56:58;;;;;;;14.73;2.40;;;5.90;88.50;;;;;;5065365;28;20511;-70
2021/03/16 03:59:25;;;;;;;18.55;3.05;;;5.90;88.10;;;;;;5069782;28;20047;-70
2021/03/16 04:01:52;;;;;;;15.55;2.95;;;5.90;88.20;;;;;;5062995;28;20059;-70
2021/03/16 04:04:19;;;;;;;18.13;2.60;;;5.90;88.70;;;;;;5070905;28;20127;-70
2021/03/16 04:06:45;;;;;;;16.13;2.55;;;5.90;89.00;;;;;;5072157;28;20068;-70
2021/03/16 04:09:11;;;;;;;15.35;2.95;;;5.90;89.00;;;;;;5072749;28;20056;-70
2021/03/16 04:11:39;;;;;;;20.25;3.50;;;6.00;90.00;;;;;;5071449;28;20412;-70
2021/03/16 04:14:04;;;;;;;20.90;3.20;;;5.90;89.30;;;;;;5070436;28;20411;-70
2021/03/16 04:16:31;;;;;;;12.38;2.50;;;5.90;89.10;;;;;;5066877;28;20036;-70
2021/03/16 04:18:57;;;;;;;20.13;2.58;;;5.90;89.40;;;;;;5072621;28;20051;-69
2021/03/16 04:21:23;;;;;;;20.38;3.63;;;5.90;89.30;;;;;;5071126;28;20032;-69
2021/03/16 04:23:49;;;;;;;19.77;3.90;;;5.90;89.50;;;;;;5070750;28;20119;-69
2021/03/16 04:26:15;;;;;;;17.50;3.60;;;5.90;89.40;;;;;;5069887;28;20088;-69
2021/03/16 04:28:40;;;;;;;17.65;3.70;;;5.90;89.50;;;;;;5070559;28;20071;-69
2021/03/16 04:31:06;;;;;;;28.92;4.22;;;5.80;89.90;;;;;;5069123;28;20045;-69
2021/03/16 04:33:32;;;;;;;16.23;2.70;;;5.90;89.70;;;;;;5069698;28;20501;-69
2021/03/16 04:35:57;;;;;;;20.08;2.97;;;5.90;89.50;;;;;;5071034;28;20616;-69
2021/03/16 04:38:23;;;;;;;20.85;3.72;;;6.00;89.30;;;;;;5072427;28;20036;-69
2021/03/16 04:40:49;;;;;;;15.60;2.67;;;6.00;89.40;;;;;;5068716;28;20052;-69
2021/03/16 04:43:15;;;;;;;17.27;2.80;;;5.90;89.50;;;;;;5067372;28;20415;-69
2021/03/16 04:45:40;;;;;;;18.70;3.17;;;5.80;89.90;;;;;;5069799;28;20090;-69
2021/03/16 04:48:06;;;;;;;22.25;3.42;;;5.80;89.80;;;;;;5070716;28;20154;-69
2021/03/16 04:50:32;;;;;;;22.67;3.47;;;5.90;89.60;;;;;;5066416;28;20116;-69
2021/03/16 04:52:58;;;;;;;25.98;3.75;;;5.80;89.70;;;;;;5071369;28;20055;-69
2021/03/16 04:55:23;;;;;;;23.00;3.42;;;5.80;90.10;;;;;;5070618;28;20033;-69
2021/03/16 04:57:49;;;;;;;12.13;2.65;;;5.80;89.80;;;;;;5069556;28;20398;-69
2021/03/16 05:00:15;;;;;;;17.83;3.13;;;5.90;89.50;;;;;;5070088;28;20033;-69
2021/03/16 05:02:41;;;;;;;20.08;2.88;;;5.90;90.10;;;;;;5071964;28;20044;-69
2021/03/16 05:05:09;;;;;;;20.77;3.10;;;5.90;89.30;;;;;;5069750;28;20064;-69
2021/03/16 05:07:35;;;;;;;23.88;3.55;;;5.80;89.70;;;;;;5071273;28;20478;-69
2021/03/16 05:10:00;;;;;;;21.63;2.67;;;5.80;89.70;;;;;;5070922;28;20040;-69
2021/03/16 05:12:28;;;;;;;16.85;3.00;;;5.80;90.00;;;;;;5070952;28;20071;-70
2021/03/16 05:14:53;;;;;;;22.98;2.83;;;5.90;89.80;;;;;;5069908;28;20374;-70
2021/03/16 05:17:19;;;;;;;21.63;3.38;;;5.80;89.80;;;;;;5071311;28;20091;-70
2021/03/16 05:19:44;;;;;;;23.38;2.75;;;5.80;90.20;;;;;;5070723;28;20032;-70
2021/03/16 05:22:10;;;;;;;20.75;3.55;;;5.80;89.40;;;;;;5068238;28;20177;-70
2021/03/16 05:24:36;;;;;;;21.05;3.58;;;5.90;89.60;;;;;;5069726;28;20040;-70
2021/03/16 05:27:03;;;;;;;16.30;3.05;;;5.80;90.00;;;;;;5068762;28;20044;-70
2021/03/16 05:29:28;;;;;;;24.63;3.45;;;5.80;90.00;;;;;;5068832;28;20036;-70
2021/03/16 05:31:54;;;;;;;17.70;3.38;;;5.80;89.90;;;;;;5068928;28;20041;-70
2021/03/16 05:34:20;;;;;;;22.13;3.28;;;5.80;89.90;;;;;;5068609;28;20639;-70
2021/03/16 05:36:45;;;;;;;20.55;3.38;;;5.80;89.50;;;;;;5068446;28;20075;-70
2021/03/16 05:39:11;;;;;;;17.75;2.70;;;5.80;89.90;;;;;;5070923;28;20131;-70
2021/03/16 05:41:40;;;;;;;23.15;3.13;;;5.90;89.70;;;;;;5081551;22;20055;-70
2021/03/16 05:44:07;;;;;;;23.48;4.43;;;5.80;89.30;;;;;;5071201;28;20128;-70
2021/03/16 05:46:36;;;;;;;26.15;3.20;;;5.80;89.50;;;;;;5069543;28;20037;-70
2021/03/16 05:49:06;;;;;;;21.65;3.67;;;5.80;89.60;;;;;;5069250;28;20039;-70
2021/03/16 05:51:36;;;;;;;14.02;2.42;;;5.70;89.90;;;;;;5067845;28;20036;-70
2021/03/16 05:54:04;;;;;;;19.60;2.95;;;5.70;89.60;;;;;;5070655;28;20645;-71
2021/03/16 05:56:31;;;;;;;19.17;2.63;;;5.60;90.10;;;;;;5066722;28;20032;-71
2021/03/16 05:58:58;;;;;;;16.98;3.38;;;5.70;90.30;;;;;;5068577;28;20040;-70
2021/03/16 06:01:23;;;;;;;20.98;3.17;;;5.60;89.60;;;;;;5069403;28;20032;-71
2021/03/16 06:03:49;;;;;;;17.52;2.70;;;5.50;89.40;;;;;;5069414;28;20131;-71
2021/03/16 06:06:15;;;;;;;17.63;2.90;;;5.50;90.10;;;;;;5067976;28;20040;-71
2021/03/16 06:08:41;;;;;;;15.63;2.58;;;5.50;89.70;;;;;;5068970;28;20040;-71
2021/03/16 06:11:08;;;;;;;19.52;3.45;;;5.50;90.20;;;;;;5068048;28;20108;-71
2021/03/16 06:13:35;;;;;;;15.73;2.88;;;5.50;90.00;;;;;;5068882;28;20052;-71
2021/03/16 06:16:14;;;;;;;13.82;2.72;;;5.50;90.00;;;;;;5067400;28;20098;-71
2021/03/16 06:18:42;;;;;;;17.48;3.45;;;5.50;89.70;;;;;;5052998;28;20040;-70
2021/03/16 06:21:08;;;;;;;18.67;2.65;;;5.50;89.70;;;;;;5067652;28;20093;-71
2021/03/16 06:23:36;;;;;;;17.83;2.97;;;5.50;89.80;;;;;;5069910;28;20040;-72
2021/03/16 06:26:07;;;;;;;16.67;2.53;;;5.50;89.60;;;;;;5068050;28;20056;-71
2021/03/16 06:28:35;;;;;;;19.20;3.38;;;5.50;89.80;;;;;;5067209;28;20039;-70
2021/03/16 06:31:01;;;;;;;20.13;2.80;;;5.60;89.90;;;;;;5070574;28;20028;-71
2021/03/16 06:33:29;;;;;;;23.17;3.53;;;5.60;89.90;;;;;;5066954;28;20769;-71
2021/03/16 06:36:03;;;;;;;16.70;2.97;;;5.60;90.00;;;;;;5065959;28;20047;-72
2021/03/16 06:38:30;;;;;;;17.73;2.63;;;5.50;89.60;;;;;;5067381;28;20493;-71
2021/03/16 06:41:07;;;;;;;16.80;3.10;;;5.50;89.60;;;;;;5070111;28;20060;-72
2021/03/16 06:43:33;;;;;;;16.85;2.90;;;5.60;89.70;;;;;;5067720;28;20036;-71
2021/03/16 06:45:59;;;;;;;15.75;3.22;;;5.70;90.00;;;;;;5065957;28;20039;-72
2021/03/16 06:48:25;;;;;;;14.90;2.60;;;5.80;89.30;;;;;;5066928;28;20119;-71
2021/03/16 06:50:52;;;;;;;15.00;2.80;;;6.00;88.50;;;;;;5068794;28;20482;-71
2021/03/16 06:53:20;;;;;;;16.67;3.50;;;6.40;88.40;;;;;;5067247;28;20036;-72
2021/03/16 06:56:05;;;;;;;19.52;2.88;;;7.50;83.60;;;;;;5068227;28;20036;-71
2021/03/16 06:58:33;;;;;;;17.83;2.88;;;8.80;80.50;;;;;;5069759;28;20029;-72
2021/03/16 07:01:06;;;;;;;11.23;2.53;;;9.80;72.70;;;;;;5070128;28;20045;-72
2021/03/16 07:03:32;;;;;;;16.92;2.78;;;10.30;71.30;;;;;;5073899;28;20082;-71
2021/03/16 07:06:18;;;;;;;10.13;2.30;;;9.90;70.50;;;;;;5073520;28;20432;-71
2021/03/16 07:08:45;;;;;;;18.92;3.50;;;9.40;72.50;;;;;;5074124;28;20043;-72
2021/03/16 07:11:13;;;;;;;13.65;2.70;;;9.30;73.30;;;;;;5073852;28;20509;-72
2021/03/16 07:13:40;;;;;;;12.20;2.28;;;8.90;73.80;;;;;;5073899;28;20489;-72
2021/03/16 07:16:06;;;;;;;16.25;2.70;;;8.60;76.20;;;;;;5072606;28;20120;-72
2021/03/16 07:18:35;;;;;;;14.00;2.95;;;8.20;77.00;;;;;;5074010;28;20036;-72
2021/03/16 07:21:07;;;;;;;16.02;2.55;;;7.80;78.00;;;;;;5073796;28;20576;-71
2021/03/16 07:23:48;;;;;;;12.50;2.20;;;8.30;77.20;;;;;;5073516;28;20036;-72
2021/03/16 07:26:15;;;;;;;18.63;3.40;;;9.50;75.80;;;;;;5073558;28;20032;-72
2021/03/16 07:28:43;;;;;;;14.15;2.70;;;9.70;72.10;;;;;;5073510;28;20036;-72
2021/03/16 07:31:09;;;;;;;18.27;3.03;;;9.30;72.50;;;;;;5073620;28;20050;-72
2021/03/16 07:33:36;;;;;;;15.43;2.63;;;9.40;74.10;;;;;;5073832;28;20666;-72
2021/03/16 07:36:02;;;;;;;16.33;3.03;;;9.50;73.50;;;;;;5073620;28;20357;-72
2021/03/16 07:38:27;;;;;;;19.27;2.80;;;9.40;71.90;;;;;;5072908;28;20028;-72
2021/03/16 07:40:54;;;;;;;13.82;2.35;;;9.50;73.20;;;;;;5073270;28;20497;-72
2021/03/16 07:43:30;;;;;;;14.18;2.30;;;8.70;74.10;;;;;;5073438;28;20039;-72
2021/03/16 07:46:16;;;;;;;18.25;3.28;;;8.70;74.90;;;;;;5073478;28;20078;-71
2021/03/16 07:48:44;;;;;;;13.45;2.83;;;8.60;75.30;;;;;;5064139;28;20421;-71
2021/03/16 07:51:18;;;;;;;15.55;2.40;;;8.80;75.60;;;;;;5071057;28;20047;-72
2021/03/16 07:53:54;;;;;;;11.85;1.98;;;8.50;75.90;;;;;;5071687;28;20071;-71
2021/03/16 07:56:27;;;;;;;10.50;2.28;;;8.60;75.80;;;;;;5068845;28;20033;-72
2021/03/16 07:58:54;;;;;;;20.85;3.30;;;8.20;75.90;;;;;;5072160;28;20048;-71
2021/03/16 08:01:20;;;;;;;13.95;2.63;;;8.10;76.80;;;;;;5072949;28;20035;-71
2021/03/16 08:03:45;;;;;;;14.65;2.28;;;8.10;77.80;;;;;;5066047;28;20032;-71
2021/03/16 08:06:24;;;;;;;18.90;2.75;;;8.10;77.80;;;;;;5072621;28;20097;-71
2021/03/16 08:08:51;;;;;;;9.68;2.60;;;7.80;77.50;;;;;;5072023;28;20139;-71
2021/03/16 08:11:18;;;;;;;14.80;2.30;;;7.90;77.60;;;;;;5072113;28;20105;-71
2021/03/16 08:13:58;;;;;;;13.20;2.25;;;7.90;78.60;;;;;;5071798;28;20044;-71
2021/03/16 08:16:43;;;;;;;11.38;1.92;;;8.00;77.50;;;;;;5071271;28;20037;-71
2021/03/16 08:19:20;;;;;;;8.45;1.80;;;8.10;76.00;;;;;;5072567;28;20036;-71
2021/03/16 08:21:54;;;;;;;15.63;2.83;;;8.50;76.40;;;;;;5072864;28;20470;-71
2021/03/16 08:24:19;;;;;;;14.88;2.08;;;8.40;75.10;;;;;;5070184;28;20058;-71
2021/03/16 08:26:54;;;;;;;11.50;2.28;;;8.40;74.70;;;;;;5071909;28;20153;-72
2021/03/16 08:29:31;;;;;;;19.75;2.50;;;8.50;75.50;;;;;;5072303;28;20051;-72
2021/03/16 08:31:59;;;;;;;9.38;1.65;;;8.40;73.90;;;;;;5070746;28;20036;-71
2021/03/16 08:34:27;;;;;;;9.35;1.67;;;8.30;74.00;;;;;;5068185;28;20045;-71
2021/03/16 08:36:53;;;;;;;9.07;1.60;;;8.30;76.00;;;;;;5069332;28;20032;-70
2021/03/16 08:39:27;;;;;;;13.15;2.70;;;8.40;74.60;;;;;;5071075;28;20167;-71
2021/03/16 08:42:01;;;;;;;9.80;1.60;;;8.50;74.70;;;;;;5062791;28;20097;-71
2021/03/16 08:44:29;;;;;;;8.85;1.38;;;8.30;73.70;;;;;;5060643;28;20068;-69
2021/03/16 08:46:59;;;;;;;10.77;1.55;;;8.30;73.80;;;;;;5064818;28;20049;-71
2021/03/16 08:49:25;;;;;;;9.73;1.92;;;8.40;75.00;;;;;;5070962;28;20032;-69
2021/03/16 08:51:51;;;;;;;10.75;1.75;;;8.40;71.30;;;;;;5072291;28;20032;-69
2021/03/16 08:54:27;;;;;;;8.00;1.45;;;8.30;71.00;;;;;;5072035;28;20478;-70
2021/03/16 08:56:53;;;;;;;6.80;1.25;;;8.40;72.90;;;;;;5081052;28;20029;-70
2021/03/16 08:59:20;;;;;;;6.65;1.58;;;8.40;72.10;;;;;;5071989;28;20028;-70
2021/03/16 09:01:48;;;;;;;8.80;1.60;;;8.40;71.00;;;;;;5071799;28;20095;-70
2021/03/16 09:04:14;;;;;;;12.45;2.13;;;8.50;72.60;;;;;;5072192;28;20041;-69
2021/03/16 09:06:40;;;;;;;10.25;2.00;;;8.60;70.90;;;;;;5071526;28;20052;-70
2021/03/16 09:09:06;;;;;;;9.85;1.58;;;8.70;69.90;;;;;;5071648;28;20032;-69
2021/03/16 09:11:41;;;;;;;9.48;1.98;;;8.90;72.00;;;;;;5071407;28;20040;-70
2021/03/16 09:14:15;;;;;;;11.95;2.63;;;9.10;71.50;;;;;;5071113;28;20040;-70
2021/03/16 09:16:46;;;;;;;6.25;1.50;;;9.00;70.40;;;;;;5070556;28;20664;-70
2021/03/16 09:19:15;;;;;;;12.07;2.17;;;8.50;71.00;;;;;;5068137;28;20041;-70
2021/03/16 09:21:53;;;;;;;8.57;1.73;;;8.40;72.10;;;;;;5062712;28;20349;-70
2021/03/16 09:24:21;;;;;;;13.80;2.10;;;8.50;74.30;;;;;;5064208;28;20108;-69
2021/03/16 09:26:56;;;;;;;9.60;1.75;;;8.60;74.10;;;;;;5067504;28;20040;-69
2021/03/16 09:29:25;;;;;;;6.65;1.23;;;8.40;69.90;;;;;;5070811;28;20056;-70
2021/03/16 09:31:51;;;;;;;9.65;2.30;;;8.50;70.50;;;;;;5072813;28;20114;-69
2021/03/16 09:34:16;;;;;;;9.38;1.80;;;8.60;72.30;;;;;;5079987;28;20150;-69
2021/03/16 09:36:42;;;;;;;8.23;1.98;;;8.80;72.40;;;;;;5070841;28;20132;-69
2021/03/16 09:39:10;;;;;;;14.48;1.98;;;8.80;66.00;;;;;;5070470;28;20035;-69
2021/03/16 09:41:35;;;;;;;8.23;1.90;;;9.00;70.70;;;;;;5069724;28;20120;-70
2021/03/16 09:44:02;;;;;;;14.95;1.75;;;9.30;69.80;;;;;;5068969;28;20167;-69
2021/03/16 09:46:28;;;;;;;8.48;1.70;;;9.40;68.00;;;;;;5071192;28;20039;-70
2021/03/16 09:48:57;;;;;;;4.95;1.33;;;9.40;65.10;;;;;;5067995;28;20052;-69
2021/03/16 09:51:26;;;;;;;4.35;1.40;;;9.30;63.60;;;;;;5064671;28;20040;-69
2021/03/16 09:53:54;;;;;;;7.25;1.27;;;9.20;64.30;;;;;;5069977;28;20036;-70
2021/03/16 09:56:29;;;;;;;21.48;2.47;;;9.00;66.70;;;;;;5060865;28;20028;-70
2021/03/16 09:58:58;;;;;;;6.03;0.98;;;8.90;66.80;;;;;;5065878;28;20032;-69
2021/03/16 10:01:25;;;;;;;8.07;1.38;;;9.10;71.00;;;;;;5062876;28;20089;-70
2021/03/16 10:04:01;;;;;;;10.65;1.77;;;9.10;66.60;;;;;;5065730;28;20661;-70
2021/03/16 10:06:38;;;;;;;5.82;1.58;;;9.10;66.00;;;;;;5064307;28;20045;-70
2021/03/16 10:09:16;;;;;;;8.13;1.70;;;9.30;65.80;;;;;;5064185;28;20036;-70
2021/03/16 10:11:42;;;;;;;9.73;1.55;;;9.40;65.70;;;;;;5064077;28;20036;-70
2021/03/16 10:14:08;;;;;;;10.93;1.70;;;9.40;65.90;;;;;;5068312;28;20131;-70
2021/03/16 10:16:35;;;;;;;5.00;1.13;;;9.30;65.70;;;;;;5067018;28;20163;-69
2021/03/16 10:19:01;;;;;;;2.90;1.00;;;9.40;66.00;;;;;;5068346;28;20433;-70
2021/03/16 10:21:31;;;;;;;4.97;1.00;;;9.50;69.20;;;;;;5067287;28;20037;-69
2021/03/16 10:24:04;;;;;;;9.38;1.65;;;9.40;67.20;;;;;;5068095;28;20059;-69
2021/03/16 10:26:30;;;;;;;8.05;1.48;;;9.60;65.30;;;;;;5067319;28;20032;-69
2021/03/16 10:28:56;;;;;;;10.20;1.77;;;9.80;67.60;;;;;;5067644;28;20531;-69
2021/03/16 10:31:24;;;;;;;8.00;1.27;;;9.90;66.30;;;;;;5065638;28;20036;-70
2021/03/16 10:33:52;;;;;;;5.22;1.15;;;9.90;64.70;;;;;;5066249;28;20482;-69
2021/03/16 10:36:21;;;;;;;6.18;1.50;;;9.80;66.10;;;;;;5072191;28;20125;-69
2021/03/16 10:38:48;;;;;;;11.05;2.08;;;9.60;64.80;;;;;;5079322;28;20037;-70
2021/03/16 10:41:18;;;;;;;11.63;2.30;;;9.70;66.80;;;;;;5068139;28;20032;-69
2021/03/16 10:43:45;;;;;;;9.60;1.70;;;9.40;65.80;;;;;;5072168;28;20819;-70
2021/03/16 10:46:10;;;;;;;5.95;1.92;;;9.50;63.00;;;;;;5071192;28;20037;-69
2021/03/16 10:48:36;;;;;;;5.97;1.40;;;9.60;62.50;;;;;;5061251;28;20071;-69
2021/03/16 10:51:03;;;;;;;6.13;1.48;;;9.40;59.60;;;;;;5070034;28;20049;-70
2021/03/16 10:53:29;;;;;;;6.40;1.42;;;9.30;62.70;;;;;;5073072;28;20068;-70
2021/03/16 10:55:55;;;;;;;8.10;1.60;;;9.30;64.40;;;;;;5070741;28;20067;-69
2021/03/16 10:58:20;;;;;;;7.82;1.42;;;9.20;65.30;;;;;;5072786;28;20037;-69
2021/03/16 11:00:46;;;;;;;5.80;1.30;;;9.30;62.70;;;;;;5069825;28;20041;-70
2021/03/16 11:03:12;;;;;;;6.40;1.50;;;9.60;66.20;;;;;;5070011;28;20040;-70
2021/03/16 11:05:37;;;;;;;5.53;1.63;;;9.80;61.30;;;;;;5070245;28;20045;-70
2021/03/16 11:08:03;;;;;;;7.32;1.52;;;9.80;59.10;;;;;;5067316;28;20383;-70
2021/03/16 11:10:29;;;;;;;8.88;1.67;;;10.10;64.90;;;;;;5073590;28;20405;-69
2021/03/16 11:12:55;;;;;;;6.00;1.25;;;10.30;63.60;;;;;;5073627;28;20036;-69
2021/03/16 11:15:21;;;;;;;6.18;1.33;;;10.30;58.70;;;;;;5074494;28;20044;-70
2021/03/16 11:17:47;;;;;;;8.32;1.67;;;10.20;60.30;;;;;;5074523;28;20047;-69
2021/03/16 11:20:14;;;;;;;8.93;1.85;;;9.60;57.70;;;;;;5071524;28;20062;-69
2021/03/16 11:22:39;;;;;;;8.10;1.55;;;9.30;59.90;;;;;;5076516;28;20059;-69
2021/03/16 11:25:06;;;;;;;5.18;0.95;;;9.30;63.20;;;;;;5073723;28;20107;-70
2021/03/16 11:27:32;;;;;;;9.50;1.83;;;9.20;63.10;;;;;;5077591;28;20060;-70
2021/03/16 11:29:58;;;;;;;10.88;1.27;;;9.00;60.00;;;;;;5073710;28;20071;-70
2021/03/16 11:32:24;;;;;;;9.50;1.30;;;9.40;62.60;;;;;;5072808;28;20032;-70
2021/03/16 11:34:49;;;;;;;9.77;1.30;;;9.90;65.40;;;;;;5059342;28;20091;-70
2021/03/16 11:37:15;;;;;;;6.13;1.15;;;10.00;62.40;;;;;;5068665;28;20630;-70
2021/03/16 11:39:41;;;;;;;6.20;1.38;;;10.50;65.40;;;;;;5052484;28;20044;-70
2021/03/16 11:42:07;;;;;;;12.02;2.03;;;10.50;63.70;;;;;;5069087;28;20052;-70
2021/03/16 11:44:32;;;;;;;7.57;1.45;;;10.30;62.50;;;;;;5068804;28;20086;-71
2021/03/16 11:46:58;;;;;;;7.68;1.60;;;9.70;56.90;;;;;;5073297;28;20040;-69
2021/03/16 11:49:23;;;;;;;8.15;1.73;;;9.50;59.00;;;;;;5072919;28;20377;-70
2021/03/16 11:51:50;;;;;;;4.82;1.25;;;9.40;63.00;;;;;;5073191;28;20048;-70
2021/03/16 11:54:15;;;;;;;7.68;1.85;;;9.60;63.80;;;;;;5072096;28;20098;-70
2021/03/16 11:56:41;;;;;;;11.00;1.42;;;9.60;59.50;;;;;;5073344;28;20024;-70
2021/03/16 11:59:07;;;;;;;9.73;1.40;;;10.10;64.10;;;;;;5069831;28;20090;-70
2021/03/16 12:01:32;;;;;;;8.13;2.15;;;10.10;64.00;;;;;;5072801;28;20086;-70
2021/03/16 12:03:58;;;;;;;7.38;1.25;;;10.10;63.00;;;;;;5072564;28;20024;-70
2021/03/16 12:06:23;;;;;;;7.53;1.50;;;9.70;61.90;;;;;;5071862;28;20482;-70
2021/03/16 12:08:49;;;;;;;8.07;1.10;;;9.60;59.80;;;;;;5069613;28;20059;-70
2021/03/16 12:11:15;;;;;;;6.55;1.08;;;9.90;63.60;;;;;;5070653;28;20029;-70
2021/03/16 12:13:40;;;;;;;5.75;1.27;;;10.10;62.90;;;;;;5073039;28;20587;-70
2021/03/16 12:16:06;;;;;;;4.70;1.33;;;10.10;58.20;;;;;;5068355;28;20119;-71
2021/03/16 12:18:32;;;;;;;6.85;1.70;;;10.00;58.40;;;;;;5071014;28;20430;-70
2021/03/16 12:20:58;;;;;;;5.07;0.80;;;9.70;56.40;;;;;;5084236;28;20128;-70
2021/03/16 12:23:25;;;;;;;2.92;0.82;;;9.90;59.60;;;;;;5070835;28;20633;-70
2021/03/16 12:25:53;;;;;;;4.82;0.88;;;10.00;58.80;;;;;;5071497;28;20098;-70
2021/03/16 12:28:19;;;;;;;4.90;0.98;;;10.20;58.80;;;;;;5070467;28;20032;-70
2021/03/16 12:30:45;;;;;;;7.00;1.23;;;10.00;57.40;;;;;;5091282;28;20086;-70
2021/03/16 12:33:11;;;;;;;7.07;1.45;;;10.00;56.50;;;;;;5071876;28;20467;-70
2021/03/16 12:35:36;;;;;;;7.20;1.75;;;10.20;57.00;;;;;;5072045;28;20032;-70
2021/03/16 12:38:03;;;;;;;5.50;1.05;;;10.40;57.20;;;;;;5072275;28;20033;-70
2021/03/16 12:40:29;;;;;;;10.45;1.70;;;10.50;59.10;;;;;;5071941;28;20123;-70
2021/03/16 12:42:55;;;;;;;12.75;1.30;;;10.00;57.90;;;;;;5072228;28;20044;-70
2021/03/16 12:45:21;;;;;;;7.45;1.42;;;10.10;60.00;;;;;;5071746;28;20037;-71
2021/03/16 12:47:46;;;;;;;7.07;1.33;;;10.20;58.60;;;;;;5071548;28;20440;-71
2021/03/16 12:50:13;;;;;;;6.05;1.08;;;10.10;56.20;;;;;;5071690;28;20082;-71
2021/03/16 12:52:40;;;;;;;3.83;1.10;;;10.40;57.50;;;;;;5071731;28;20752;-71